createdAt,value
2018-12-27T00:01:33.283Z,89.00
2018-12-27T00:04:03.808Z,81.23
2018-12-27T00:06:32.917Z,75.93
2018-12-27T00:09:02.152Z,83.67
2018-12-27T00:11:31.376Z,72.87
2018-12-27T00:14:03.065Z,74.73
2018-12-27T00:16:32.325Z,73.80
2018-12-27T00:19:02.913Z,76.03
2018-12-27T00:21:32.051Z,76.53
2018-12-27T00:24:01.156Z,79.23
2018-12-27T00:26:30.246Z,68.93
2018-12-27T00:28:59.644Z,75.87
2018-12-27T00:31:28.812Z,76.27
2018-12-27T00:33:57.918Z,82.80
2018-12-27T00:36:27.489Z,73.27
2018-12-27T00:38:57.668Z,73.10
2018-12-27T00:41:26.776Z,78.03
2018-12-27T00:43:57.280Z,74.57
2018-12-27T00:46:28.571Z,79.97
2018-12-27T00:48:57.898Z,73.50
2018-12-27T00:51:27.036Z,78.40
2018-12-27T00:53:56.702Z,68.07
2018-12-27T00:56:26.595Z,78.80
2018-12-27T00:58:55.800Z,66.63
2018-12-27T01:01:25.463Z,71.40
2018-12-27T01:03:55.844Z,70.60
2018-12-27T01:06:24.988Z,73.80
2018-12-27T01:08:54.725Z,71.23
2018-12-27T01:11:23.858Z,71.17
2018-12-27T01:13:52.987Z,73.93
2018-12-27T01:16:22.086Z,71.67
2018-12-27T01:18:51.312Z,69.10
2018-12-27T01:21:21.773Z,70.50
2018-12-27T01:23:50.866Z,79.50
2018-12-27T01:26:19.992Z,71.70
2018-12-27T01:28:52.535Z,78.77
2018-12-27T01:31:21.426Z,74.87
2018-12-27T01:33:50.532Z,76.73
2018-12-27T01:36:19.686Z,71.73
2018-12-27T01:38:51.630Z,66.50
2018-12-27T01:41:20.994Z,83.50
2018-12-27T01:43:50.120Z,75.97
2018-12-27T01:46:19.212Z,78.10
2018-12-27T01:48:48.300Z,80.23
2018-12-27T01:51:17.452Z,79.57
2018-12-27T01:53:46.554Z,89.83
2018-12-27T01:56:15.744Z,83.60
2018-12-27T01:58:46.072Z,87.10
2018-12-27T02:01:15.164Z,90.70
2018-12-27T02:03:45.342Z,86.20
2018-12-27T02:06:14.501Z,81.00
2018-12-27T02:08:44.572Z,81.23
2018-12-27T02:11:13.936Z,87.93
2018-12-27T02:13:43.083Z,81.07
2018-12-27T02:16:14.233Z,79.30
2018-12-27T02:18:43.619Z,75.83
2018-12-27T02:21:13.543Z,75.40
2018-12-27T02:23:45.488Z,79.33
2018-12-27T02:26:14.598Z,79.10
2018-12-27T02:28:43.784Z,75.30
2018-12-27T02:31:12.903Z,80.23
2018-12-27T02:33:42.785Z,88.50
2018-12-27T02:36:11.914Z,90.03
2018-12-27T02:38:40.996Z,86.47
2018-12-27T02:41:10.083Z,90.80
2018-12-27T02:43:39.238Z,92.00
2018-12-27T02:46:11.665Z,91.93
2018-12-27T02:48:41.232Z,83.00
2018-12-27T02:51:10.376Z,100.70
2018-12-27T02:53:39.774Z,100.07
2018-12-27T02:56:09.204Z,92.27
2018-12-27T02:58:38.327Z,94.13
2018-12-27T03:01:09.702Z,88.07
2018-12-27T03:03:43.873Z,79.93
2018-12-27T03:06:09.664Z,101.37
2018-12-27T03:08:39.012Z,106.73
2018-12-27T03:11:08.612Z,96.17
2018-12-27T03:13:39.033Z,96.37
2018-12-27T03:16:08.154Z,100.97
2018-12-27T03:18:38.083Z,115.20
2018-12-27T03:21:08.274Z,108.83
2018-12-27T03:23:37.399Z,97.53
2018-12-27T03:26:06.510Z,84.17
2018-12-27T03:28:35.639Z,85.80
2018-12-27T03:31:04.753Z,81.63
2018-12-27T03:33:33.835Z,86.23
2018-12-27T03:36:02.986Z,76.97
2018-12-27T03:38:32.143Z,74.77
2018-12-27T03:41:01.312Z,78.80
2018-12-27T03:43:32.980Z,76.03
2018-12-27T03:46:02.859Z,73.97
2018-12-27T03:48:32.249Z,76.47
2018-12-27T03:51:01.351Z,72.47
2018-12-27T03:53:30.512Z,76.30
2018-12-27T03:55:59.635Z,73.20
2018-12-27T03:58:28.791Z,73.10
2018-12-27T04:00:57.892Z,74.43
2018-12-27T04:03:27.031Z,78.20
2018-12-27T04:05:56.135Z,77.57
2018-12-27T04:08:25.218Z,72.93
2018-12-27T04:10:56.710Z,78.63
2018-12-27T04:13:25.797Z,82.13
2018-12-27T04:15:54.904Z,78.07
2018-12-27T04:18:24.063Z,83.43
2018-12-27T04:20:54.259Z,81.77
2018-12-27T04:23:23.447Z,75.10
2018-12-27T04:25:52.891Z,83.37
2018-12-27T04:28:21.901Z,81.17
2018-12-27T04:30:51.113Z,73.60
2018-12-27T04:33:20.988Z,79.33
2018-12-27T04:35:53.030Z,88.40
2018-12-27T04:38:22.119Z,90.67
2018-12-27T04:40:51.978Z,95.90
2018-12-27T04:43:24.451Z,93.03
2018-12-27T04:45:54.292Z,103.63
2018-12-27T04:48:23.422Z,100.60
2018-12-27T04:50:53.239Z,93.37
2018-12-27T04:53:22.282Z,101.37
2018-12-27T04:55:51.531Z,101.80
2018-12-27T04:58:20.894Z,101.87
2018-12-27T05:00:52.914Z,104.67
2018-12-27T05:03:22.044Z,106.47
2018-12-27T05:05:51.400Z,103.67
2018-12-27T05:08:21.728Z,104.60
2018-12-27T05:10:52.308Z,104.73
2018-12-27T05:13:21.455Z,106.23
2018-12-27T05:15:53.969Z,102.60
2018-12-27T05:18:23.128Z,105.67
2018-12-27T05:20:52.239Z,106.20
2018-12-27T05:23:21.316Z,119.40
2018-12-27T05:25:50.663Z,105.60
2018-12-27T05:28:19.803Z,99.03
2018-12-27T05:30:48.900Z,109.60
2018-12-27T05:33:17.970Z,103.83
2018-12-27T05:35:46.992Z,103.13
2018-12-27T05:38:16.098Z,94.20
2018-12-27T05:40:48.284Z,100.83
2018-12-27T05:43:17.374Z,100.13
2018-12-27T05:45:46.730Z,93.03
2018-12-27T05:48:15.932Z,95.03
2018-12-27T05:50:44.961Z,96.67
2018-12-27T05:53:14.058Z,89.90
2018-12-27T05:55:43.912Z,95.43
2018-12-27T05:58:13.040Z,84.93
2018-12-27T06:00:43.740Z,93.20
2018-12-27T06:03:13.151Z,90.57
2018-12-27T06:05:42.193Z,90.80
2018-12-27T06:08:11.203Z,91.23
2018-12-27T06:10:40.235Z,84.77
2018-12-27T06:13:12.602Z,91.17
2018-12-27T06:15:44.332Z,84.17
2018-12-27T06:18:13.632Z,85.70
2018-12-27T06:20:43.032Z,89.30
2018-12-27T06:23:12.126Z,81.57
2018-12-27T06:25:43.255Z,83.17
2018-12-27T06:28:14.094Z,79.67
2018-12-27T06:30:45.712Z,84.27
2018-12-27T06:33:15.070Z,84.87
2018-12-27T06:35:47.763Z,79.67
2018-12-27T06:38:17.619Z,78.80
2018-12-27T06:40:46.707Z,80.83
2018-12-27T06:43:15.837Z,78.83
2018-12-27T06:45:44.865Z,78.40
2018-12-27T06:48:13.939Z,78.33
2018-12-27T06:50:43.093Z,77.57
2018-12-27T06:53:15.055Z,74.93
2018-12-27T06:55:43.950Z,82.20
2018-12-27T06:58:13.205Z,77.53
2018-12-27T07:00:42.348Z,78.03
2018-12-27T07:03:12.421Z,72.53
2018-12-27T07:05:42.077Z,75.57
2018-12-27T07:08:11.099Z,74.90
2018-12-27T07:10:40.394Z,77.07
2018-12-27T07:13:10.628Z,70.83
2018-12-27T07:15:39.942Z,64.57
2018-12-27T07:18:09.264Z,65.67
2018-12-27T07:20:38.391Z,73.30
2018-12-27T07:23:08.319Z,71.37
2018-12-27T07:25:38.215Z,68.13
2018-12-27T07:28:07.340Z,66.90
2018-12-27T07:30:37.202Z,68.83
2018-12-27T07:33:06.365Z,68.13
2018-12-27T07:35:35.813Z,70.93
2018-12-27T07:38:05.418Z,69.60
2018-12-27T07:40:34.517Z,72.20
2018-12-27T07:43:05.907Z,66.47
2018-12-27T07:45:35.721Z,74.07
2018-12-27T07:48:04.814Z,72.13
2018-12-27T07:50:33.941Z,67.37
2018-12-27T07:53:02.951Z,71.87
2018-12-27T07:55:32.226Z,71.67
2018-12-27T07:58:01.271Z,68.20
2018-12-27T08:00:30.395Z,68.77
2018-12-27T08:02:59.836Z,67.60
2018-12-27T08:05:28.885Z,65.70
2018-12-27T08:07:57.987Z,67.03
2018-12-27T08:10:27.065Z,66.73
2018-12-27T08:12:56.209Z,65.03
2018-12-27T08:15:25.300Z,62.33
2018-12-27T08:17:54.433Z,59.40
2018-12-27T08:20:24.321Z,61.97
2018-12-27T08:22:54.722Z,64.67
2018-12-27T08:25:23.817Z,66.20
2018-12-27T08:27:53.245Z,70.27
2018-12-27T08:30:24.356Z,68.23
2018-12-27T08:32:54.193Z,64.03
2018-12-27T08:35:23.586Z,67.53
2018-12-27T08:37:52.970Z,66.43
2018-12-27T08:40:21.987Z,66.30
2018-12-27T08:42:51.119Z,62.33
2018-12-27T08:45:20.209Z,66.27
2018-12-27T08:47:49.754Z,59.90
2018-12-27T08:50:19.142Z,62.77
2018-12-27T08:52:50.582Z,62.30
2018-12-27T08:55:23.811Z,61.40
2018-12-27T08:57:53.071Z,57.70
2018-12-27T09:00:22.667Z,56.53
2018-12-27T09:02:51.788Z,53.93
2018-12-27T09:05:20.896Z,57.53
2018-12-27T09:07:49.987Z,55.03
2018-12-27T09:10:19.351Z,54.93
2018-12-27T09:12:51.057Z,53.13
2018-12-27T09:15:20.179Z,55.77
2018-12-27T09:17:49.316Z,54.50
2018-12-27T09:20:19.797Z,61.57
2018-12-27T09:22:48.897Z,57.50
2018-12-27T09:25:18.039Z,53.80
2018-12-27T09:27:47.147Z,55.27
2018-12-27T09:30:16.284Z,54.53
2018-12-27T09:32:45.260Z,51.37
2018-12-27T09:35:15.579Z,54.23
2018-12-27T09:37:44.973Z,58.50
2018-12-27T09:40:14.372Z,51.33
2018-12-27T09:42:45.847Z,51.97
2018-12-27T09:45:14.953Z,51.87
2018-12-27T09:47:46.367Z,53.70
2018-12-27T09:50:15.394Z,49.77
2018-12-27T09:52:44.425Z,49.93
2018-12-27T09:55:13.555Z,48.37
2018-12-27T09:57:42.676Z,46.60
2018-12-27T10:00:12.825Z,47.63
2018-12-27T10:02:42.754Z,47.90
2018-12-27T10:05:12.153Z,47.73
2018-12-27T10:07:41.256Z,42.03
2018-12-27T10:10:10.396Z,46.23
2018-12-27T10:12:39.489Z,45.43
2018-12-27T10:15:09.453Z,44.80
2018-12-27T10:17:38.581Z,41.60
2018-12-27T10:20:07.969Z,40.10
2018-12-27T10:22:37.516Z,39.57
2018-12-27T10:25:06.818Z,42.10
2018-12-27T10:27:35.965Z,39.47
2018-12-27T10:30:05.485Z,40.07
2018-12-27T10:32:34.664Z,40.07
2018-12-27T10:35:03.791Z,36.90
2018-12-27T10:37:32.811Z,35.90
2018-12-27T10:40:01.939Z,39.20
2018-12-27T10:42:31.041Z,37.03
2018-12-27T10:45:00.505Z,35.63
2018-12-27T10:47:29.678Z,37.30
2018-12-27T10:49:58.844Z,33.80
2018-12-27T10:52:30.228Z,36.23
2018-12-27T10:54:59.364Z,37.73
2018-12-27T10:57:28.445Z,35.33
2018-12-27T10:59:57.600Z,38.73
2018-12-27T11:02:27.007Z,36.97
2018-12-27T11:04:57.491Z,41.63
2018-12-27T11:07:26.748Z,36.40
2018-12-27T11:09:55.848Z,36.63
2018-12-27T11:12:24.934Z,41.57
2018-12-27T11:14:57.316Z,34.77
2018-12-27T11:17:26.540Z,35.90
2018-12-27T11:19:55.499Z,35.13
2018-12-27T11:22:24.606Z,33.53
2018-12-27T11:24:56.424Z,34.57
2018-12-27T11:27:26.488Z,37.57
2018-12-27T11:29:55.507Z,38.93
2018-12-27T11:32:24.628Z,39.13
2018-12-27T11:34:55.713Z,34.20
2018-12-27T11:37:26.673Z,34.27
2018-12-27T11:39:55.751Z,32.73
2018-12-27T11:42:24.770Z,39.27
2018-12-27T11:44:54.764Z,36.07
2018-12-27T11:47:23.921Z,34.90
2018-12-27T11:49:53.203Z,34.90
2018-12-27T11:52:22.321Z,32.53
2018-12-27T11:54:53.177Z,34.50
2018-12-27T11:57:22.279Z,33.80
2018-12-27T11:59:52.146Z,34.50
2018-12-27T12:02:21.930Z,34.50
2018-12-27T12:04:50.995Z,33.67
2018-12-27T12:07:20.107Z,35.63
2018-12-27T12:09:49.504Z,35.17
2018-12-27T12:12:18.855Z,34.43
2018-12-27T12:14:49.260Z,33.73
2018-12-27T12:17:18.393Z,31.57
2018-12-27T12:19:51.238Z,35.73
2018-12-27T12:22:20.430Z,31.53
2018-12-27T12:24:49.584Z,32.53
2018-12-27T12:27:20.284Z,31.80
2018-12-27T12:29:49.892Z,34.27
2018-12-27T12:32:19.014Z,32.73
2018-12-27T12:34:48.126Z,32.50
2018-12-27T12:37:17.303Z,28.53
2018-12-27T12:39:47.394Z,31.03
2018-12-27T12:42:17.424Z,32.47
2018-12-27T12:44:46.552Z,28.67
2018-12-27T12:47:15.688Z,28.77
2018-12-27T12:49:45.894Z,28.03
2018-12-27T12:52:15.024Z,29.20
2018-12-27T12:54:46.855Z,30.63
2018-12-27T12:57:15.875Z,31.80
2018-12-27T12:59:44.995Z,31.57
2018-12-27T13:02:14.122Z,30.03
2018-12-27T13:04:43.735Z,29.33
2018-12-27T13:07:12.857Z,36.30
2018-12-27T13:09:43.117Z,30.70
2018-12-27T13:12:12.215Z,33.10
2018-12-27T13:14:41.327Z,30.10
2018-12-27T13:17:10.467Z,29.87
2018-12-27T13:19:39.571Z,32.23
2018-12-27T13:22:08.661Z,31.70
2018-12-27T13:24:37.789Z,31.13
2018-12-27T13:27:08.993Z,32.83
2018-12-27T13:29:38.103Z,33.70
2018-12-27T13:32:10.398Z,33.20
2018-12-27T13:34:39.508Z,34.37
2018-12-27T13:37:08.530Z,34.07
2018-12-27T13:39:37.575Z,36.03
2018-12-27T13:42:06.598Z,38.87
2018-12-27T13:44:38.113Z,32.00
2018-12-27T13:47:09.428Z,32.73
2018-12-27T13:49:38.566Z,30.97
2018-12-27T13:52:07.734Z,33.63
2018-12-27T13:54:36.889Z,29.50
2018-12-27T13:57:05.962Z,33.63
2018-12-27T13:59:37.224Z,31.67
2018-12-27T14:02:06.610Z,33.30
2018-12-27T14:04:36.180Z,33.83
2018-12-27T14:07:05.334Z,32.37
2018-12-27T14:09:34.576Z,31.17
2018-12-27T14:12:03.685Z,33.30
2018-12-27T14:14:32.724Z,35.83
2018-12-27T14:17:01.981Z,34.30
2018-12-27T14:19:31.088Z,36.83
2018-12-27T14:22:00.434Z,35.33
2018-12-27T14:24:29.708Z,33.87
2018-12-27T14:26:58.740Z,32.33
2018-12-27T14:29:28.362Z,35.90
2018-12-27T14:31:57.904Z,36.03
2018-12-27T14:34:27.011Z,33.20
2018-12-27T14:36:56.105Z,35.80
2018-12-27T14:39:26.791Z,34.10
2018-12-27T14:41:55.890Z,35.33
2018-12-27T14:44:24.969Z,37.17
2018-12-27T14:46:54.049Z,38.57
2018-12-27T14:49:23.169Z,36.77
2018-12-27T14:51:52.219Z,40.83
2018-12-27T14:54:21.293Z,35.93
2018-12-27T14:56:50.374Z,34.90
2018-12-27T14:59:19.485Z,38.27
2018-12-27T15:01:49.144Z,39.00
2018-12-27T15:04:19.230Z,39.80
2018-12-27T15:06:50.576Z,34.40
2018-12-27T15:09:22.572Z,37.90
2018-12-27T15:11:52.750Z,38.27
2018-12-27T15:14:21.867Z,40.47
2018-12-27T15:16:51.902Z,40.67
2018-12-27T15:19:20.996Z,42.70
2018-12-27T15:21:50.288Z,41.50
2018-12-27T15:24:21.504Z,40.20
2018-12-27T15:26:50.536Z,40.17
2018-12-27T15:29:20.050Z,38.00
2018-12-27T15:31:49.194Z,39.57
2018-12-27T15:34:18.310Z,37.30
2018-12-27T15:36:54.332Z,37.23
2018-12-27T15:39:19.634Z,40.77
2018-12-27T15:41:53.028Z,40.57
2018-12-27T15:44:22.448Z,41.60
2018-12-27T15:46:53.759Z,43.87
2018-12-27T15:49:22.793Z,36.53
2018-12-27T15:51:52.147Z,39.40
2018-12-27T15:54:23.457Z,39.70
2018-12-27T15:56:52.895Z,38.37
2018-12-27T15:59:21.991Z,38.27
2018-12-27T16:01:50.967Z,36.83
2018-12-27T16:04:20.600Z,36.00
2018-12-27T16:06:50.223Z,39.70
2018-12-27T16:09:22.069Z,44.20
2018-12-27T16:11:53.441Z,40.77
2018-12-27T16:14:23.585Z,39.67
2018-12-27T16:16:52.720Z,41.33
2018-12-27T16:19:21.804Z,39.77
2018-12-27T16:21:50.905Z,40.70
2018-12-27T16:24:20.155Z,39.63
2018-12-27T16:26:50.268Z,37.33
2018-12-27T16:29:20.063Z,42.37
2018-12-27T16:31:49.436Z,41.47
2018-12-27T16:34:19.761Z,42.30
2018-12-27T16:36:48.809Z,41.53
2018-12-27T16:39:19.458Z,37.23
2018-12-27T16:41:51.191Z,45.90
2018-12-27T16:44:20.569Z,48.73
2018-12-27T16:46:54.286Z,40.67
2018-12-27T16:49:23.418Z,43.43
2018-12-27T16:51:52.624Z,43.93
2018-12-27T16:54:21.739Z,41.03
2018-12-27T16:56:51.114Z,40.27
2018-12-27T16:59:21.169Z,43.63
2018-12-27T17:01:50.330Z,41.40
2018-12-27T17:04:19.559Z,44.17
2018-12-27T17:06:49.929Z,42.23
2018-12-27T17:09:20.282Z,42.80
2018-12-27T17:11:49.439Z,43.23
2018-12-27T17:14:18.468Z,42.93
2018-12-27T17:16:47.840Z,43.40
2018-12-27T17:19:16.864Z,42.67
2018-12-27T17:21:45.974Z,44.27
2018-12-27T17:24:15.350Z,42.90
2018-12-27T17:26:44.712Z,46.70
2018-12-27T17:29:13.835Z,43.20
2018-12-27T17:31:43.030Z,45.97
2018-12-27T17:34:12.131Z,44.73
2018-12-27T17:36:42.322Z,43.87
2018-12-27T17:39:11.860Z,42.83
2018-12-27T17:41:44.232Z,43.43
2018-12-27T17:44:14.260Z,45.77
2018-12-27T17:46:43.391Z,48.07
2018-12-27T17:49:15.831Z,43.80
2018-12-27T17:51:44.911Z,46.83
2018-12-27T17:54:14.803Z,47.43
2018-12-27T17:56:47.457Z,48.73
2018-12-27T17:59:16.551Z,43.43
2018-12-27T18:01:45.673Z,46.83
2018-12-27T18:04:17.402Z,46.90
2018-12-27T18:06:47.078Z,46.10
2018-12-27T18:09:16.226Z,44.83
2018-12-27T18:11:45.373Z,50.20
2018-12-27T18:14:14.533Z,48.90
2018-12-27T18:16:43.750Z,54.87
2018-12-27T18:19:13.108Z,52.83
2018-12-27T18:21:45.767Z,78.50
2018-12-27T18:24:15.172Z,60.17
2018-12-27T18:26:44.215Z,53.57
2018-12-27T18:29:13.348Z,49.83
2018-12-27T18:31:42.476Z,64.07
2018-12-27T18:34:11.596Z,49.87
2018-12-27T18:36:40.710Z,50.00
2018-12-27T18:39:09.848Z,48.90
2018-12-27T18:41:38.950Z,46.77
2018-12-27T18:44:08.274Z,46.43
2018-12-27T18:46:37.416Z,49.23
2018-12-27T18:49:10.849Z,66.53
2018-12-27T18:51:40.486Z,63.73
2018-12-27T18:54:09.563Z,57.70
2018-12-27T18:56:38.724Z,48.97
2018-12-27T18:59:08.305Z,61.00
2018-12-27T19:01:37.343Z,54.43
2018-12-27T19:04:06.453Z,55.87
2018-12-27T19:06:38.125Z,56.33
2018-12-27T19:09:08.498Z,49.00
2018-12-27T19:12:13.229Z,80.43
2018-12-27T19:14:46.165Z,50.23
2018-12-27T19:17:21.034Z,49.30
2018-12-27T19:19:50.546Z,53.27
2018-12-27T19:22:44.332Z,50.00
2018-12-27T19:25:13.448Z,50.80
2018-12-27T19:27:45.728Z,51.60
2018-12-27T19:30:15.095Z,49.67
2018-12-27T19:32:44.240Z,55.70
2018-12-27T19:35:15.718Z,59.47
2018-12-27T19:37:51.867Z,52.80
2018-12-27T19:40:15.691Z,56.80
2018-12-27T19:42:47.824Z,54.13
2018-12-27T19:45:16.929Z,56.67
2018-12-27T19:47:46.334Z,58.30
2018-12-27T19:50:15.350Z,59.50
2018-12-27T19:52:46.870Z,55.53
2018-12-27T19:55:16.139Z,58.73
2018-12-27T19:57:45.247Z,59.53
2018-12-27T20:00:14.367Z,58.57
2018-12-27T20:02:44.921Z,58.77
2018-12-27T20:05:14.011Z,56.33
2018-12-27T20:07:46.824Z,55.87
2018-12-27T20:10:19.099Z,59.50
2018-12-27T20:12:48.461Z,57.47
2018-12-27T20:15:17.790Z,56.53
2018-12-27T20:17:55.304Z,58.63
2018-12-27T20:20:24.691Z,58.13
2018-12-27T20:22:55.113Z,54.43
2018-12-27T20:25:24.201Z,56.87
2018-12-27T20:27:53.801Z,57.13
2018-12-27T20:30:22.981Z,53.93
2018-12-27T20:32:52.068Z,54.60
2018-12-27T20:35:21.147Z,55.67
2018-12-27T20:37:50.552Z,56.77
2018-12-27T20:40:19.647Z,61.53
2018-12-27T20:42:49.422Z,59.13
2018-12-27T20:45:18.558Z,64.27
2018-12-27T20:47:47.924Z,61.80
2018-12-27T20:50:17.027Z,61.33
2018-12-27T20:52:49.922Z,61.30
2018-12-27T20:55:19.022Z,61.43
2018-12-27T20:57:50.367Z,61.60
2018-12-27T21:00:21.388Z,60.90
2018-12-27T21:02:51.097Z,65.77
2018-12-27T21:05:22.016Z,66.70
2018-12-27T21:07:51.108Z,65.83
2018-12-27T21:10:20.432Z,65.77
2018-12-27T21:12:50.358Z,67.33
2018-12-27T21:15:23.197Z,64.33
2018-12-27T21:17:52.528Z,62.43
2018-12-27T21:20:22.639Z,66.00
2018-12-27T21:22:52.823Z,57.23
2018-12-27T21:25:21.871Z,72.57
2018-12-27T21:27:51.014Z,67.03
2018-12-27T21:30:20.119Z,71.57
2018-12-27T21:32:49.817Z,66.07
2018-12-27T21:35:20.289Z,66.07
2018-12-27T21:37:49.355Z,66.33
2018-12-27T21:40:18.461Z,66.63
2018-12-27T21:42:47.595Z,72.83
2018-12-27T21:45:16.724Z,68.83
2018-12-27T21:47:47.596Z,71.07
2018-12-27T21:50:19.148Z,70.77
2018-12-27T21:52:48.560Z,69.27
2018-12-27T21:55:17.927Z,73.10
2018-12-27T21:57:47.299Z,79.20
2018-12-27T22:00:16.441Z,81.40
2018-12-27T22:02:45.390Z,74.97
2018-12-27T22:05:14.829Z,76.50
2018-12-27T22:07:44.306Z,69.93
2018-12-27T22:10:13.396Z,80.97
2018-12-27T22:12:43.248Z,70.27
2018-12-27T22:15:12.536Z,80.87
2018-12-27T22:17:43.971Z,75.90
2018-12-27T22:20:15.408Z,74.37
2018-12-27T22:22:50.620Z,82.87
2018-12-27T22:25:19.724Z,78.53
2018-12-27T22:27:48.768Z,80.53
2018-12-27T22:30:18.015Z,75.77
2018-12-27T22:32:50.371Z,83.53
2018-12-27T22:35:19.462Z,81.70
2018-12-27T22:37:50.833Z,88.33
2018-12-27T22:40:19.930Z,89.37
2018-12-27T22:42:49.444Z,80.70
2018-12-27T22:45:18.630Z,76.37
2018-12-27T22:47:47.801Z,77.33
2018-12-27T22:50:16.915Z,78.67
2018-12-27T22:52:46.107Z,86.80
2018-12-27T22:55:15.186Z,79.80
2018-12-27T22:57:44.510Z,78.27
2018-12-27T23:00:21.307Z,141.23
2018-12-27T23:02:50.335Z,114.80
2018-12-27T23:05:19.437Z,108.57
2018-12-27T23:07:49.939Z,95.63
2018-12-27T23:10:19.042Z,96.93
2018-12-27T23:12:48.195Z,97.23
2018-12-27T23:15:17.413Z,92.43
2018-12-27T23:17:46.498Z,99.73
2018-12-27T23:20:15.506Z,95.57
2018-12-27T23:22:46.182Z,106.57
2018-12-27T23:25:15.348Z,100.77
2018-12-27T23:27:46.326Z,99.43
2018-12-27T23:30:15.456Z,98.20
2018-12-27T23:32:44.650Z,103.90
2018-12-27T23:35:13.766Z,103.13
2018-12-27T23:37:42.942Z,99.03
2018-12-27T23:40:12.057Z,109.17
2018-12-27T23:42:42.422Z,101.17
2018-12-27T23:45:11.477Z,112.33
2018-12-27T23:47:40.497Z,100.77
2018-12-27T23:50:09.628Z,97.00
2018-12-27T23:52:38.774Z,103.67
2018-12-27T23:55:07.937Z,113.27
2018-12-27T23:57:36.891Z,109.43
